Time;durP1;ratioP1;P1;durP2;ratioP2;P2;SDS_P1;SDS_P2;PMS_P1;PMS_P2;Temp;Humidity;BMP_temperature;BMP_pressure;BME280_temperature;BME280_humidity;BME280_pressure;Samples;Min_cycle;Max_cycle;Signal;HPM_P1;HPM_P2
2023/07/27 00:00:31;;;;;;;5.20;4.70;;;;;;;9.29;100.00;96934.06;5016078;28;20267;-63
2023/07/27 00:02:59;;;;;;;4.93;4.47;;;;;;;9.31;100.00;96932.03;4910544;28;21021;-63
2023/07/27 00:05:28;;;;;;;5.63;5.13;;;;;;;9.29;100.00;96931.41;5017386;28;20648;-62
2023/07/27 00:07:56;;;;;;;5.40;4.90;;;;;;;9.25;100.00;96925.66;5010571;28;20263;-61
2023/07/27 00:10:24;;;;;;;5.23;4.83;;;;;;;9.28;100.00;96927.13;5016193;28;20233;-61
2023/07/27 00:12:52;;;;;;;6.13;5.27;;;;;;;9.24;100.00;96912.63;5010723;28;20289;-63
2023/07/27 00:15:21;;;;;;;5.80;5.40;;;;;;;9.28;100.00;96921.84;5015799;28;20204;-61
2023/07/27 00:17:49;;;;;;;5.27;4.87;;;;;;;9.18;100.00;96903.59;4957162;28;20335;-63
2023/07/27 00:20:17;;;;;;;5.40;5.00;;;;;;;9.29;100.00;96917.38;5014848;28;20307;-62
2023/07/27 00:22:45;;;;;;;6.07;5.67;;;;;;;9.29;100.00;96920.03;5012531;28;20393;-63
2023/07/27 00:25:12;;;;;;;6.33;5.93;;;;;;;9.27;100.00;96913.06;5014378;28;20697;-63
2023/07/27 00:27:40;;;;;;;5.63;5.13;;;;;;;9.26;100.00;96919.34;5008093;28;20311;-64
2023/07/27 00:30:08;;;;;;;6.07;5.57;;;;;;;9.25;100.00;96915.06;5016422;28;21536;-63
2023/07/27 00:32:37;;;;;;;6.37;5.80;;;;;;;9.21;100.00;96916.44;5014262;28;20643;-61
2023/07/27 00:35:06;;;;;;;6.73;5.80;;;;;;;9.21;100.00;96916.44;5009461;28;20611;-62
2023/07/27 00:37:34;;;;;;;6.13;5.73;;;;;;;9.24;100.00;96918.72;4951095;28;21025;-59
2023/07/27 00:40:02;;;;;;;6.20;5.60;;;;;;;9.24;100.00;96926.66;4975352;28;20248;-61
2023/07/27 00:42:30;;;;;;;6.70;5.93;;;;;;;9.23;100.00;96917.09;5010947;28;20515;-63
2023/07/27 00:44:58;;;;;;;6.57;5.93;;;;;;;9.29;100.00;96922.66;5012204;28;20621;-62
2023/07/27 00:47:26;;;;;;;6.60;6.00;;;;;;;9.29;100.00;96918.19;5012929;28;20497;-65
2023/07/27 00:49:55;;;;;;;6.97;6.40;;;;;;;9.16;100.00;96900.31;5010974;28;20691;-64
2023/07/27 00:52:23;;;;;;;8.13;7.30;;;;;;;9.27;100.00;96928.13;5011372;28;20224;-63
2023/07/27 00:54:50;;;;;;;6.47;5.97;;;;;;;9.26;100.00;96918.56;5012820;28;20778;-62
2023/07/27 00:57:19;;;;;;;7.47;6.90;;;;;;;9.22;100.00;96909.34;5013467;28;20204;-64
2023/07/27 00:59:46;;;;;;;7.07;6.37;;;;;;;9.17;100.00;96906.44;5017629;28;20320;-64
2023/07/27 01:02:14;;;;;;;7.13;5.67;;;;;;;9.16;100.00;96908.25;5013062;28;20236;-63
2023/07/27 01:04:42;;;;;;;8.23;6.60;;;;;;;9.16;100.00;96897.66;5007722;28;20453;-63
2023/07/27 01:07:11;;;;;;;7.03;6.33;;;;;;;9.17;100.00;96896.66;4993011;28;20222;-62
2023/07/27 01:09:38;;;;;;;6.70;6.20;;;;;;;9.14;100.00;96902.31;5010139;28;20212;-62
2023/07/27 01:12:12;;;;;;;7.40;6.70;;;;;;;9.13;100.00;96898.03;5009329;28;20306;-64
2023/07/27 01:14:44;;;;;;;7.97;6.57;;;;;;;9.06;100.00;96887.34;4924793;28;20216;-61
2023/07/27 01:17:18;;;;;;;7.57;6.90;;;;;;;9.08;100.00;96895.13;5015243;28;20395;-59
2023/07/27 01:20:05;;;;;;;8.67;7.90;;;;;;;9.13;100.00;96895.38;5011797;28;20217;-59
2023/07/27 01:23:08;;;;;;;7.17;6.47;;;;;;;9.08;100.00;96898.56;5010308;28;20196;-61
2023/07/27 01:25:57;;;;;;;7.27;6.67;;;;;;;8.97;100.00;96877.88;5013013;28;20267;-60
2023/07/27 01:28:39;;;;;;;7.23;6.63;;;;;;;9.10;100.00;96888.66;5008405;28;20229;-60
2023/07/27 01:31:11;;;;;;;6.93;6.43;;;;;;;9.10;100.00;96886.03;5011932;28;20260;-59
2023/07/27 01:33:41;;;;;;;7.67;7.07;;;;;;;9.07;100.00;96890.84;5011049;28;20366;-59
2023/07/27 01:36:12;;;;;;;7.47;6.77;;;;;;;9.08;100.00;96881.91;5011611;28;20476;-60
2023/07/27 01:38:43;;;;;;;7.53;6.93;;;;;;;9.04;100.00;96883.28;5007171;28;20207;-60
2023/07/27 01:41:12;;;;;;;7.93;7.23;;;;;;;9.02;100.00;96885.28;5012058;28;20715;-61
2023/07/27 01:43:40;;;;;;;7.73;7.10;;;;;;;8.97;100.00;96881.34;4903229;28;20217;-61
2023/07/27 01:46:10;;;;;;;6.47;5.87;;;;;;;8.95;100.00;96883.38;5013712;28;20240;-62
2023/07/27 01:48:40;;;;;;;6.50;6.00;;;;;;;8.93;100.00;96876.59;5012909;28;20657;-61
2023/07/27 01:51:08;;;;;;;6.53;6.03;;;;;;;8.92;100.00;96882.91;5009566;28;20307;-61
2023/07/27 01:53:36;;;;;;;7.17;6.57;;;;;;;8.86;100.00;96878.34;5003181;28;20224;-60
2023/07/27 01:56:05;;;;;;;7.20;6.60;;;;;;;8.88;100.00;96871.06;5010016;28;20674;-63
2023/07/27 01:58:34;;;;;;;8.47;7.30;;;;;;;8.75;100.00;96861.09;5010829;28;20223;-61
2023/07/27 02:01:02;;;;;;;7.37;6.77;;;;;;;8.85;100.00;96880.16;5014646;28;20260;-62
2023/07/27 02:03:31;;;;;;;7.47;6.87;;;;;;;8.83;100.00;96882.16;5008721;28;20258;-62
2023/07/27 02:06:00;;;;;;;7.43;6.73;;;;;;;8.83;100.00;96875.06;5011165;28;20188;-61
2023/07/27 02:08:28;;;;;;;8.27;7.03;;;;;;;8.83;100.00;96863.66;5011682;28;20215;-62
2023/07/27 02:10:58;;;;;;;8.07;6.93;;;;;;;8.84;100.00;96870.56;5012391;28;20213;-61
2023/07/27 02:13:31;;;;;;;8.07;7.30;;;;;;;8.77;100.00;96853.81;5008006;28;20207;-62
2023/07/27 02:16:04;;;;;;;8.57;7.87;;;;;;;8.85;100.00;96864.28;5013582;28;20225;-62
2023/07/27 02:18:35;;;;;;;6.97;6.47;;;;;;;8.82;100.00;96867.28;4904497;28;20242;-62
2023/07/27 02:21:05;;;;;;;7.77;7.07;;;;;;;8.83;100.00;96863.66;5016479;28;20584;-62
2023/07/27 02:23:33;;;;;;;7.27;6.67;;;;;;;8.82;100.00;96860.22;5017122;28;20250;-62
2023/07/27 02:26:00;;;;;;;9.47;7.87;;;;;;;8.84;100.00;96865.28;5017609;28;20233;-61
2023/07/27 02:28:28;;;;;;;7.60;6.90;;;;;;;8.80;100.00;96856.94;5007900;28;20625;-58
2023/07/27 02:30:56;;;;;;;7.93;7.23;;;;;;;8.81;100.00;96866.50;5013737;28;20227;-61
2023/07/27 02:33:24;;;;;;;8.43;7.70;;;;;;;8.82;100.00;96869.94;5013006;28;21366;-59
2023/07/27 02:35:54;;;;;;;7.40;6.87;;;;;;;8.82;100.00;96862.84;5012729;28;20801;-61
2023/07/27 02:38:22;;;;;;;8.03;7.10;;;;;;;8.82;100.00;96867.28;5011522;28;20216;-61
2023/07/27 02:40:50;;;;;;;8.33;7.63;;;;;;;8.83;100.00;96868.94;5012454;28;20452;-61
2023/07/27 02:43:19;;;;;;;8.80;7.90;;;;;;;8.75;100.00;96861.09;5006332;28;20212;-61
2023/07/27 02:45:46;;;;;;;8.07;7.37;;;;;;;8.77;100.00;96867.03;5013209;28;20728;-61
2023/07/27 02:48:14;;;;;;;8.27;7.47;;;;;;;8.77;100.00;96870.50;5010312;28;20299;-61
2023/07/27 02:50:49;;;;;;;8.30;7.53;;;;;;;8.71;100.00;96871.19;5014567;28;20882;-61
2023/07/27 02:53:18;;;;;;;7.93;7.20;;;;;;;8.72;100.00;96869.38;4901804;28;20216;-62
2023/07/27 02:55:56;;;;;;;7.17;6.67;;;;;;;8.67;100.00;96868.09;5014233;28;20216;-61
2023/07/27 02:58:23;;;;;;;7.87;7.27;;;;;;;8.73;100.00;96863.94;5009323;28;20404;-61
2023/07/27 03:00:52;;;;;;;8.07;7.30;;;;;;;8.75;100.00;96863.75;5015294;28;20315;-61
2023/07/27 03:03:19;;;;;;;7.97;6.70;;;;;;;8.81;100.00;96868.28;5009445;28;20208;-61
2023/07/27 03:05:47;;;;;;;8.63;7.87;;;;;;;8.90;100.00;96869.03;5012852;28;20296;-60
2023/07/27 03:08:15;;;;;;;9.27;8.47;;;;;;;8.90;100.00;96859.31;5006654;28;20298;-60
2023/07/27 03:10:44;;;;;;;8.73;7.80;;;;;;;8.92;100.00;96865.22;5017359;28;20308;-61
2023/07/27 03:13:11;;;;;;;9.77;8.87;;;;;;;8.90;100.00;96863.75;4952411;28;20204;-61
2023/07/27 03:15:40;;;;;;;9.60;8.80;;;;;;;8.89;100.00;96862.13;5012401;28;20255;-61
2023/07/27 03:18:08;;;;;;;9.73;8.80;;;;;;;8.90;100.00;96864.59;5011664;28;20204;-61
2023/07/27 03:20:39;;;;;;;13.07;9.93;;;;;;;8.97;100.00;96872.59;5009969;28;20757;-59
2023/07/27 03:23:08;;;;;;;11.80;10.70;;;;;;;9.01;100.00;96871.22;4911088;28;21517;-63
2023/07/27 03:25:36;;;;;;;11.37;10.37;;;;;;;9.10;100.00;96872.81;5018122;28;20299;-64
2023/07/27 03:28:07;;;;;;;11.47;10.30;;;;;;;9.12;100.00;96868.16;5010264;28;20204;-63
2023/07/27 03:30:36;;;;;;;11.30;10.13;;;;;;;9.24;100.00;96881.72;5014511;28;20224;-64
2023/07/27 03:33:04;;;;;;;12.50;11.30;;;;;;;9.28;100.00;96882.19;5013177;28;20639;-63
2023/07/27 03:35:32;;;;;;;12.67;11.40;;;;;;;9.43;100.00;96879.53;5015555;28;20274;-66
2023/07/27 03:37:59;;;;;;;11.57;10.47;;;;;;;9.50;100.00;96884.91;5008340;28;20279;-66
2023/07/27 03:40:27;;;;;;;11.83;10.73;;;;;;;9.50;100.00;96884.91;5011765;28;20342;-65
2023/07/27 03:42:55;;;;;;;12.23;10.93;;;;;;;9.54;100.00;96883.53;5008201;28;20304;-66
2023/07/27 03:45:24;;;;;;;12.73;11.43;;;;;;;9.59;100.00;96890.91;5012807;28;20706;-65
2023/07/27 03:47:51;;;;;;;12.10;10.90;;;;;;;9.62;100.00;96891.34;5007589;28;20715;-66
2023/07/27 03:50:19;;;;;;;11.37;10.47;;;;;;;9.67;100.00;96880.22;5012572;28;20209;-66
2023/07/27 03:52:47;;;;;;;11.13;10.03;;;;;;;9.71;100.00;96881.50;5010126;28;20197;-65
2023/07/27 03:55:18;;;;;;;11.40;10.27;;;;;;;9.67;100.00;96880.22;5009596;28;20221;-65
2023/07/27 03:57:46;;;;;;;10.70;9.73;;;;;;;9.69;100.00;96876.38;4923403;28;21504;-65
2023/07/27 04:00:14;;;;;;;11.83;10.83;;;;;;;9.66;100.00;96875.91;4939774;28;20208;-65
2023/07/27 04:02:43;;;;;;;11.63;10.50;;;;;;;9.64;100.00;96880.56;5018217;28;20209;-66
2023/07/27 04:05:11;;;;;;;12.20;11.10;;;;;;;9.75;100.00;96872.19;5009575;28;20201;-66
2023/07/27 04:07:39;;;;;;;12.53;11.43;;;;;;;9.73;100.00;96870.72;5017322;28;20477;-65
2023/07/27 04:10:07;;;;;;;13.13;11.83;;;;;;;9.77;100.00;96869.34;5013285;28;20259;-65
2023/07/27 04:12:34;;;;;;;12.83;11.60;;;;;;;9.77;100.00;96872.81;5012980;28;20274;-65
2023/07/27 04:15:02;;;;;;;13.37;11.97;;;;;;;9.82;100.00;96867.78;5012611;28;20307;-65
2023/07/27 04:17:30;;;;;;;13.07;11.77;;;;;;;9.78;100.00;96866.50;5015740;28;20212;-65
2023/07/27 04:19:59;;;;;;;13.00;11.70;;;;;;;9.85;100.00;96859.47;4949828;28;20344;-65
2023/07/27 04:22:27;;;;;;;12.07;11.07;;;;;;;9.71;100.00;96855.03;5009511;28;20582;-64
2023/07/27 04:24:55;;;;;;;12.57;11.20;;;;;;;9.70;100.00;96858.69;5012068;28;20220;-65
2023/07/27 04:27:23;;;;;;;12.53;11.40;;;;;;;9.78;100.00;96858.56;5015099;28;20204;-64
2023/07/27 04:29:50;;;;;;;13.47;12.27;;;;;;;9.73;100.00;96837.16;4912743;28;20233;-64
2023/07/27 04:32:18;;;;;;;13.30;12.20;;;;;;;9.91;100.00;96870.28;5011584;28;20231;-65
2023/07/27 04:34:49;;;;;;;12.30;11.30;;;;;;;9.88;100.00;96862.75;5013414;28;20200;-65
2023/07/27 04:37:17;;;;;;;13.70;12.40;;;;;;;9.87;100.00;96861.09;5016073;28;20784;-65
2023/07/27 04:39:45;;;;;;;11.47;10.57;;;;;;;9.79;100.00;96849.63;5011136;28;20446;-65
2023/07/27 04:42:13;;;;;;;12.30;11.27;;;;;;;9.77;100.00;96853.47;5018670;28;20216;-64
2023/07/27 04:44:41;;;;;;;12.20;11.10;;;;;;;9.73;100.00;96837.16;5011296;28;20208;-65
2023/07/27 04:47:08;;;;;;;13.00;11.90;;;;;;;9.74;100.00;96853.84;5022193;28;20204;-65
2023/07/27 04:49:36;;;;;;;11.87;10.87;;;;;;;9.71;100.00;96860.34;5024354;28;20204;-64
2023/07/27 04:52:04;;;;;;;13.13;11.87;;;;;;;9.79;100.00;96856.72;5011147;28;20236;-66
2023/07/27 04:54:34;;;;;;;12.33;11.23;;;;;;;9.89;100.00;96851.16;4950092;28;20992;-64
2023/07/27 04:57:02;;;;;;;11.10;10.20;;;;;;;9.98;100.00;96858.78;4979920;28;20228;-64
2023/07/27 04:59:30;;;;;;;12.87;11.67;;;;;;;9.88;100.00;96830.97;4974356;28;21809;-63
2023/07/27 05:01:58;;;;;;;11.93;10.83;;;;;;;10.30;100.00;96844.41;4993849;28;20240;-63
2023/07/27 05:04:25;;;;;;;12.07;10.97;;;;;;;10.42;100.00;96851.69;5010107;28;20455;-64
2023/07/27 05:06:53;;;;;;;12.70;11.57;;;;;;;10.61;100.00;96857.31;4947099;28;20347;-64
2023/07/27 05:09:21;;;;;;;12.00;10.80;;;;;;;10.78;100.00;96854.38;5015266;28;20232;-63
2023/07/27 05:11:50;;;;;;;12.47;11.20;;;;;;;11.02;100.00;96854.94;4952108;28;21834;-63
2023/07/27 05:14:18;;;;;;;12.33;11.23;;;;;;;11.35;100.00;96849.81;4975766;28;20258;-63
2023/07/27 05:16:46;;;;;;;12.00;11.00;;;;;;;11.40;100.00;96844.75;4927221;28;20733;-63
2023/07/27 05:19:14;;;;;;;14.03;10.17;;;;;;;11.49;100.00;96841.94;5014176;28;20667;-62
2023/07/27 05:21:41;;;;;;;9.53;8.83;;;;;;;11.65;100.00;96833.59;4953731;28;20837;-66
2023/07/27 05:24:09;;;;;;;9.57;8.80;;;;;;;11.71;100.00;96821.38;5004047;28;20458;-65
2023/07/27 05:26:37;;;;;;;8.43;7.87;;;;;;;11.83;100.00;96816.31;4910796;28;20213;-65
2023/07/27 05:29:06;;;;;;;8.80;8.20;;;;;;;12.02;100.00;96806.78;5006646;28;20517;-65
2023/07/27 05:31:33;;;;;;;8.17;7.53;;;;;;;12.19;100.00;96801.06;5005110;28;20750;-63
2023/07/27 05:34:01;;;;;;;8.30;7.53;;;;;;;12.25;100.00;96792.28;5015586;28;20212;-63
2023/07/27 05:36:29;;;;;;;7.97;7.30;;;;;;;12.44;100.00;96793.28;5006817;28;20279;-64
2023/07/27 05:38:57;;;;;;;7.33;6.73;;;;;;;12.73;100.00;96784.06;5011193;28;20240;-64
2023/07/27 05:41:25;;;;;;;7.10;6.60;;;;;;;12.58;100.00;96778.97;5007160;28;20772;-64
2023/07/27 05:43:53;;;;;;;6.50;6.00;;;;;;;12.53;100.00;96776.13;4986410;28;20796;-64
2023/07/27 05:46:23;;;;;;;6.80;6.03;;;;;;;12.77;100.00;96778.34;4989726;28;20301;-64
2023/07/27 05:48:51;;;;;;;6.83;6.33;;;;;;;12.80;100.00;96783.25;5015344;28;20467;-64
2023/07/27 05:51:18;;;;;;;6.37;5.97;;;;;;;12.69;100.00;96784.69;5008911;28;20216;-64
2023/07/27 05:53:46;;;;;;;6.20;5.80;;;;;;;12.74;100.00;96772.41;4996907;28;20208;-64
2023/07/27 05:56:14;;;;;;;5.80;5.40;;;;;;;12.77;100.00;96765.06;4979527;28;20696;-64
2023/07/27 05:58:43;;;;;;;6.07;5.50;;;;;;;12.71;100.00;96770.19;4989845;28;20641;-64
2023/07/27 06:01:11;;;;;;;5.60;5.20;;;;;;;12.69;100.00;96772.22;4952638;28;20236;-64
2023/07/27 06:03:41;;;;;;;5.80;5.30;;;;;;;12.51;100.00;96764.06;5011074;28;20204;-65
2023/07/27 06:06:12;;;;;;;6.00;5.50;;;;;;;12.62;100.00;96771.41;5005849;28;20201;-65
2023/07/27 06:08:41;;;;;;;6.63;6.03;;;;;;;12.90;100.00;96769.53;5014107;28;21200;-65
2023/07/27 06:11:09;;;;;;;6.23;5.73;;;;;;;13.18;100.00;96772.69;5012426;28;20223;-64
2023/07/27 06:13:38;;;;;;;5.77;5.20;;;;;;;13.00;100.00;96769.91;5006050;28;20208;-64
2023/07/27 06:16:07;;;;;;;5.20;4.90;;;;;;;13.16;100.00;96753.44;4971112;28;20307;-63
2023/07/27 06:18:35;;;;;;;5.27;4.93;;;;;;;13.47;100.00;96764.41;5009072;28;20207;-64
2023/07/27 06:21:04;;;;;;;5.83;5.43;;;;;;;13.66;100.00;96767.16;5005514;28;20268;-63
2023/07/27 06:23:32;;;;;;;5.73;5.33;;;;;;;14.04;100.00;96767.13;5013194;28;20748;-61
2023/07/27 06:25:59;;;;;;;5.20;4.90;;;;;;;14.10;100.00;96770.75;5012263;28;20196;-65
2023/07/27 06:28:27;;;;;;;5.03;4.63;;;;;;;14.26;100.00;96763.28;5012790;28;20299;-65
2023/07/27 06:30:55;;;;;;;4.57;4.27;;;;;;;14.40;100.00;96766.66;4958440;28;20525;-64
2023/07/27 06:33:23;;;;;;;5.47;5.00;;;;;;;14.31;100.00;96766.91;5010740;28;20580;-63
2023/07/27 06:35:51;;;;;;;4.73;4.43;;;;;;;13.85;100.00;96771.56;4907456;28;20311;-64
2023/07/27 06:38:20;;;;;;;4.77;4.47;;;;;;;13.96;100.00;96771.91;5011357;28;20626;-64
2023/07/27 06:40:48;;;;;;;5.53;5.03;;;;;;;13.83;100.00;96773.63;5013544;28;20228;-64
2023/07/27 06:43:15;;;;;;;4.63;4.33;;;;;;;13.84;100.00;96763.78;5012001;28;20791;-63
2023/07/27 06:45:43;;;;;;;4.93;4.57;;;;;;;13.99;100.00;96761.59;5007256;28;20204;-63
2023/07/27 06:48:11;;;;;;;5.10;4.80;;;;;;;13.94;100.00;96768.63;5014684;28;20300;-64
2023/07/27 06:50:39;;;;;;;4.97;4.63;;;;;;;14.26;100.00;96757.94;4955756;28;20664;-63
2023/07/27 06:53:06;;;;;;;4.93;4.53;;;;;;;14.28;100.00;96754.00;5014261;28;20239;-64
2023/07/27 06:55:35;;;;;;;4.67;4.27;;;;;;;14.48;100.00;96756.50;5010653;28;20216;-64
2023/07/27 06:58:03;;;;;;;4.83;4.43;;;;;;;14.58;100.00;96757.84;5013042;28;20219;-64
2023/07/27 07:00:31;;;;;;;4.97;4.60;;;;;;;14.66;100.00;96751.41;4961038;28;20767;-64
2023/07/27 07:02:59;;;;;;;4.80;4.50;;;;;;;14.58;100.00;96752.50;5015829;28;20715;-64
2023/07/27 07:05:28;;;;;;;4.97;4.67;;;;;;;14.51;100.00;96749.09;4914234;28;20730;-63
2023/07/27 07:07:56;;;;;;;4.73;4.27;;;;;;;14.65;100.00;96750.63;5015933;28;20717;-62
2023/07/27 07:10:23;;;;;;;4.07;3.77;;;;;;;14.72;100.00;96748.72;5013278;28;20356;-62
2023/07/27 07:12:52;;;;;;;4.53;4.23;;;;;;;14.84;100.00;96745.31;5013294;28;20240;-62
2023/07/27 07:15:20;;;;;;;4.10;3.80;;;;;;;14.91;100.00;96743.38;5015269;28;20766;-63
2023/07/27 07:17:48;;;;;;;3.70;3.50;;;;;;;15.22;100.00;96740.78;5015757;28;20224;-63
2023/07/27 07:20:16;;;;;;;4.07;3.77;;;;;;;15.26;100.00;96740.09;4945796;28;20200;-63
2023/07/27 07:22:43;;;;;;;4.70;3.80;;;;;;;15.26;100.00;96731.28;5018598;28;20319;-63
2023/07/27 07:25:11;;;;;;;5.10;3.60;;;;;;;15.12;100.00;96742.09;4950998;28;20212;-65
2023/07/27 07:27:39;;;;;;;3.60;3.40;;;;;;;14.84;100.00;96734.63;5013612;28;20384;-65
2023/07/27 07:30:09;;;;;;;4.17;3.87;;;;;;;14.74;100.00;96730.66;5013286;28;20445;-65
2023/07/27 07:32:37;;;;;;;3.90;3.67;;;;;;;14.77;100.00;96726.72;5018023;28;20205;-63
2023/07/27 07:35:05;;;;;;;4.97;4.00;;;;;;;14.83;100.00;96727.69;4957515;28;20215;-64
2023/07/27 07:37:34;;;;;;;3.43;3.23;;;;;;;14.96;100.00;96735.53;5015871;28;20219;-64
2023/07/27 07:40:02;;;;;;;3.50;3.30;;;;;;;15.05;100.00;96733.38;4912371;28;20216;-64
2023/07/27 07:42:29;;;;;;;3.57;3.30;;;;;;;15.13;100.00;96735.72;5012718;28;20490;-63
2023/07/27 07:44:57;;;;;;;3.80;3.50;;;;;;;15.11;100.00;96729.81;4945387;28;20396;-64
2023/07/27 07:47:26;;;;;;;5.97;5.47;;;;;;;15.33;100.00;96738.16;5015101;28;20647;-64
2023/07/27 07:49:53;;;;;;;3.80;3.60;;;;;;;15.56;100.00;96736.63;5011026;28;20295;-64
2023/07/27 07:52:21;;;;;;;2.90;2.70;;;;;;;15.80;100.00;96739.38;5015962;28;20224;-63
2023/07/27 07:54:49;;;;;;;5.50;3.23;;;;;;;16.09;100.00;96731.53;4950040;28;21015;-65
2023/07/27 07:57:19;;;;;;;3.70;3.47;;;;;;;16.30;100.00;96735.53;5014879;28;22183;-64
2023/07/27 07:59:47;;;;;;;3.87;3.60;;;;;;;16.10;100.00;96729.69;5008217;28;20664;-65
2023/07/27 08:02:15;;;;;;;4.27;3.87;;;;;;;16.35;100.00;96732.97;5015098;28;20287;-64
2023/07/27 08:04:44;;;;;;;3.50;3.27;;;;;;;16.35;100.00;96724.13;4952782;28;20239;-65
2023/07/27 08:07:12;;;;;;;3.60;3.40;;;;;;;16.39;100.00;96727.97;5013913;28;20622;-62
2023/07/27 08:09:39;;;;;;;3.70;3.40;;;;;;;16.55;100.00;96723.78;4910428;28;20315;-63
2023/07/27 08:12:07;;;;;;;3.97;3.57;;;;;;;16.60;100.00;96723.88;5010867;28;20220;-65
2023/07/27 08:14:35;;;;;;;3.50;3.30;;;;;;;16.48;100.00;96726.59;5012966;28;20645;-65
2023/07/27 08:17:03;;;;;;;3.23;2.93;;;;;;;16.29;100.00;96722.41;5014956;28;20236;-63
2023/07/27 08:19:34;;;;;;;3.40;3.20;;;;;;;16.14;100.00;96723.69;5009737;28;20199;-62
2023/07/27 08:22:03;;;;;;;3.43;3.23;;;;;;;16.02;100.00;96714.81;5008877;28;20221;-63
2023/07/27 08:24:31;;;;;;;4.80;3.07;;;;;;;15.64;100.00;96716.81;4952222;28;20289;-63
2023/07/27 08:26:59;;;;;;;2.70;2.60;;;;;;;15.58;100.00;96713.19;5012315;28;20205;-64
2023/07/27 08:29:26;;;;;;;3.40;3.20;;;;;;;15.88;100.00;96703.50;5010058;28;20228;-64
2023/07/27 08:31:54;;;;;;;5.53;4.80;;;;;;;15.89;100.00;96705.97;5012144;28;20309;-64
2023/07/27 08:34:22;;;;;;;2.97;2.70;;;;;;;16.09;100.00;96702.16;5013691;28;20345;-64
2023/07/27 08:36:51;;;;;;;3.87;3.50;;;;;;;16.30;100.00;96706.13;5013052;28;20483;-64
2023/07/27 08:39:21;;;;;;;3.33;3.10;;;;;;;16.39;100.00;96703.09;4912103;28;20244;-64
2023/07/27 08:41:48;;;;;;;4.53;2.93;;;;;;;16.26;100.00;96702.28;5012951;28;20289;-64
2023/07/27 08:44:17;;;;;;;3.53;3.23;;;;;;;16.03;100.00;96697.72;5010779;28;20674;-65
2023/07/27 08:46:46;;;;;;;3.03;2.83;;;;;;;15.91;100.00;96695.88;5012663;28;20208;-64
2023/07/27 08:49:15;;;;;;;3.20;2.90;;;;;;;15.91;100.00;96697.75;5008585;28;20204;-64
2023/07/27 08:51:44;;;;;;;3.03;2.87;;;;;;;16.13;100.00;96699.84;5014784;28;20220;-62
2023/07/27 08:54:12;;;;;;;3.03;2.83;;;;;;;16.33;100.00;96694.97;4953361;28;20575;-63
2023/07/27 08:56:41;;;;;;;3.43;3.23;;;;;;;16.25;100.00;96699.84;5012335;28;20204;-63
2023/07/27 08:59:09;;;;;;;3.50;3.20;;;;;;;16.16;100.00;96692.19;5012454;28;20468;-63
2023/07/27 09:01:36;;;;;;;2.90;2.80;;;;;;;16.04;100.00;96694.00;5012160;28;20290;-63
2023/07/27 09:04:05;;;;;;;3.03;2.83;;;;;;;16.06;100.00;96698.09;5008850;28;20200;-62
2023/07/27 09:06:39;;;;;;;3.13;2.93;;;;;;;15.94;100.00;96693.78;5013701;28;20741;-63
2023/07/27 09:09:17;;;;;;;2.87;2.70;;;;;;;16.04;100.00;96691.34;5013786;28;20448;-63
2023/07/27 09:11:46;;;;;;;3.10;2.90;;;;;;;15.91;100.00;96695.06;5009560;28;20271;-62
2023/07/27 09:14:16;;;;;;;3.00;2.80;;;;;;;16.01;100.00;96689.97;4915254;28;20244;-62
2023/07/27 09:16:44;;;;;;;3.80;3.43;;;;;;;15.86;100.00;96692.22;5013618;28;20308;-62
2023/07/27 09:19:13;;;;;;;3.20;2.90;;;;;;;15.84;100.00;96699.66;5006661;28;20232;-63
2023/07/27 09:21:41;;;;;;;3.87;3.40;;;;;;;15.86;100.00;96690.38;5012034;28;20248;-62
2023/07/27 09:24:12;;;;;;;2.60;2.50;;;;;;;16.12;100.00;96691.03;4955046;28;20423;-62
2023/07/27 09:26:49;;;;;;;3.10;2.90;;;;;;;16.28;100.00;96694.03;5013641;28;20197;-62
2023/07/27 09:29:18;;;;;;;3.13;2.83;;;;;;;16.40;100.00;96686.81;5009232;28;21094;-62
2023/07/27 09:31:47;;;;;;;2.87;2.70;;;;;;;16.66;100.00;96684.72;5014654;28;20599;-62
2023/07/27 09:34:15;;;;;;;2.70;2.60;;;;;;;16.74;100.00;96684.34;5012411;28;20207;-62
2023/07/27 09:36:43;;;;;;;3.40;3.20;;;;;;;16.80;100.00;96682.59;5013304;28;20198;-62
2023/07/27 09:39:11;;;;;;;2.77;2.57;;;;;;;16.70;100.00;96685.84;5008505;28;20715;-63
2023/07/27 09:41:39;;;;;;;2.80;2.60;;;;;;;16.64;100.00;96676.91;5010593;28;20224;-64
2023/07/27 09:44:13;;;;;;;4.00;2.90;;;;;;;16.57;100.00;96675.44;5009683;28;20213;-63
2023/07/27 09:46:41;;;;;;;2.93;2.70;;;;;;;16.49;100.00;96674.75;5011749;28;20216;-63
2023/07/27 09:49:09;;;;;;;3.40;3.10;;;;;;;16.64;100.00;96670.75;4911970;28;21939;-63
2023/07/27 09:51:38;;;;;;;3.13;2.93;;;;;;;16.56;100.00;96671.13;5015742;28;20220;-63
2023/07/27 09:54:06;;;;;;;2.87;2.67;;;;;;;16.67;100.00;96675.63;5011598;28;20208;-63
2023/07/27 09:56:34;;;;;;;3.20;2.90;;;;;;;16.71;100.00;96671.44;5016981;28;20208;-63
2023/07/27 09:59:02;;;;;;;3.13;2.87;;;;;;;16.85;100.00;96660.47;4952834;28;23417;-62
2023/07/27 10:01:32;;;;;;;3.13;2.90;;;;;;;17.15;100.00;96662.13;5013206;28;20233;-63
2023/07/27 10:03:59;;;;;;;3.67;3.33;;;;;;;17.21;100.00;96653.97;5008591;28;20213;-63
2023/07/27 10:06:28;;;;;;;4.97;3.23;;;;;;;16.85;100.00;96647.09;5013321;28;20215;-63
2023/07/27 10:08:56;;;;;;;2.97;2.60;;;;;;;17.53;100.00;96651.84;5009281;28;20318;-63
2023/07/27 10:11:32;;;;;;;3.20;3.00;;;;;;;17.53;100.00;96636.56;5011364;28;20275;-62
2023/07/27 10:14:17;;;;;;;3.23;3.00;;;;;;;17.60;100.00;96639.91;5010130;28;20383;-63
2023/07/27 10:16:59;;;;;;;3.30;3.10;;;;;;;17.96;100.00;96634.31;5009670;28;20540;-64
2023/07/27 10:19:29;;;;;;;3.20;2.90;;;;;;;17.72;100.00;96633.69;5009253;28;20239;-63
2023/07/27 10:21:57;;;;;;;4.50;2.93;;;;;;;17.94;100.00;96634.53;5014043;28;20225;-64
2023/07/27 10:24:24;;;;;;;3.27;3.07;;;;;;;18.01;100.00;96628.25;4909875;28;20316;-63
2023/07/27 10:26:54;;;;;;;5.03;3.77;;;;;;;18.11;100.00;96619.53;5011620;28;20247;-62
2023/07/27 10:29:23;;;;;;;2.90;2.70;;;;;;;18.32;100.00;96618.78;5002086;28;20248;-62
2023/07/27 10:32:03;;;;;;;2.97;2.77;;;;;;;18.11;100.00;96619.53;5010517;28;20298;-64
2023/07/27 10:34:32;;;;;;;2.93;2.83;;;;;;;18.32;100.00;96618.78;4951626;28;20390;-62
2023/07/27 10:37:08;;;;;;;4.30;2.93;;;;;;;18.60;100.00;96608.13;5013238;28;20216;-62
2023/07/27 10:39:44;;;;;;;3.67;3.00;;;;;;;19.00;100.00;96615.03;5008670;28;20239;-63
2023/07/27 10:42:13;;;;;;;2.80;2.60;;;;;;;19.24;100.00;96607.50;5008422;28;20227;-62
2023/07/27 10:44:41;;;;;;;3.10;2.90;;;;;;;18.62;100.00;96593.41;5007722;28;20368;-63
2023/07/27 10:47:12;;;;;;;3.07;2.83;;;;;;;19.05;100.00;96596.28;5011000;28;20228;-63
2023/07/27 10:49:40;;;;;;;4.53;3.40;;;;;;;19.06;100.00;96594.44;5010543;28;20196;-63
2023/07/27 10:52:09;;;;;;;2.90;2.70;;;;;;;19.23;100.00;96597.81;5013346;28;20279;-63
2023/07/27 10:54:40;;;;;;;2.77;2.60;;;;;;;19.50;100.00;96588.09;5008765;28;20525;-62
2023/07/27 10:57:09;;;;;;;4.43;3.23;;;;;;;19.72;100.00;96581.84;5010977;28;20219;-63
2023/07/27 10:59:38;;;;;;;2.67;2.50;;;;;;;19.64;100.00;96583.94;4885348;28;20227;-63
2023/07/27 11:02:12;;;;;;;3.23;2.93;;;;;;;18.90;100.00;96580.81;5009533;28;20322;-63
2023/07/27 11:04:40;;;;;;;3.50;3.20;;;;;;;18.90;100.00;96582.69;4947736;28;20205;-62
2023/07/27 11:07:10;;;;;;;3.07;2.77;;;;;;;19.27;100.00;96578.50;5010746;28;20216;-62
2023/07/27 11:09:38;;;;;;;3.43;3.13;;;;;;;19.16;100.00;96570.38;5008778;28;20224;-63
2023/07/27 11:12:06;;;;;;;3.33;3.13;;;;;;;19.59;100.00;96550.84;5008685;28;20625;-63
2023/07/27 11:14:33;;;;;;;3.20;3.00;;;;;;;19.76;100.00;96554.19;5010294;28;20231;-62
2023/07/27 11:17:01;;;;;;;3.10;2.77;;;;;;;19.72;100.00;96550.41;5013112;28;20335;-63
2023/07/27 11:19:30;;;;;;;2.87;2.50;;;;;;;20.00;100.00;96537.69;5007915;28;20224;-63
2023/07/27 11:21:58;;;;;;;2.80;2.60;;;;;;;20.08;100.00;96539.91;5010042;28;20789;-63
2023/07/27 11:24:26;;;;;;;4.10;3.43;;;;;;;19.67;100.00;96539.59;5010708;28;20599;-63
2023/07/27 11:26:54;;;;;;;3.20;3.00;;;;;;;19.93;100.00;96531.72;5011615;28;20204;-63
2023/07/27 11:29:22;;;;;;;4.23;2.97;;;;;;;20.03;100.00;96531.00;4880615;28;20291;-62
2023/07/27 11:31:53;;;;;;;4.23;3.13;;;;;;;19.80;100.00;96525.72;5013606;28;20224;-63
2023/07/27 11:34:23;;;;;;;3.17;2.97;;;;;;;19.76;100.00;96532.69;5009175;28;20204;-61